PHENX84 YLTV-YMEN
Flight info
| Callsign | PHENX84 |
|---|---|
| Flight time | N/A |
| Altitude | 2000 |
| Route | YJGIV 3744S14502E YRMH YMEN |
| Aircraft | EC45/L-SDFGRY/C |
Departure
| Time | N/A |
|---|---|
| Airport | Latrobe Valley Airport (YLTV) |
Arrival
| Time | 2026-04-24 12:49 |
|---|---|
| Airport | Melbourne Essendon Airport (YMEN) |
| Time | Latitude | Longitude | Altitude | Speed | Heading |
|---|---|---|---|---|---|
| 2026-04-24 12:20 | -38.48866 | 145.95021 | 289 ft | 0 kts | 340° |
| 2026-04-24 12:21 | -38.48868 | 145.95020 | 295 ft | 2 kts | 11° |
| 2026-04-24 12:22 | -38.48887 | 145.95022 | 422 ft | 5 kts | 12° |
| 2026-04-24 12:22 | -38.48859 | 145.95029 | 694 ft | 26 kts | 12° |
| 2026-04-24 12:22 | -38.48505 | 145.94846 | 796 ft | 76 kts | 319° |
| 2026-04-24 12:22 | -38.48103 | 145.94459 | 1075 ft | 72 kts | 329° |
| 2026-04-24 12:23 | -38.47715 | 145.94052 | 1455 ft | 72 kts | 324° |
| 2026-04-24 12:23 | -38.47319 | 145.93668 | 1835 ft | 71 kts | 325° |
| 2026-04-24 12:23 | -38.46919 | 145.93298 | 2221 ft | 70 kts | 325° |
| 2026-04-24 12:23 | -38.46541 | 145.92915 | 2591 ft | 70 kts | 319° |
| 2026-04-24 12:24 | -38.46204 | 145.92476 | 2966 ft | 68 kts | 317° |
| 2026-04-24 12:24 | -38.45869 | 145.92052 | 3222 ft | 67 kts | 316° |
| 2026-04-24 12:24 | -38.45537 | 145.91631 | 3335 ft | 69 kts | 316° |
| 2026-04-24 12:24 | -38.45109 | 145.91101 | 3372 ft | 102 kts | 316° |
| 2026-04-24 12:25 | -38.44545 | 145.90438 | 3413 ft | 111 kts | 316° |
| 2026-04-24 12:25 | -38.43988 | 145.89763 | 3417 ft | 111 kts | 316° |
| 2026-04-24 12:25 | -38.43430 | 145.89074 | 3415 ft | 115 kts | 316° |
| 2026-04-24 12:25 | -38.42847 | 145.88359 | 3421 ft | 116 kts | 316° |
| 2026-04-24 12:26 | -38.42270 | 145.87641 | 3423 ft | 116 kts | 316° |
| 2026-04-24 12:26 | -38.41694 | 145.86919 | 3419 ft | 116 kts | 316° |
| 2026-04-24 12:26 | -38.41126 | 145.86206 | 3422 ft | 116 kts | 316° |
| 2026-04-24 12:26 | -38.40551 | 145.85489 | 3422 ft | 116 kts | 316° |
| 2026-04-24 12:27 | -38.39973 | 145.84767 | 3424 ft | 116 kts | 316° |
| 2026-04-24 12:27 | -38.39402 | 145.84046 | 3422 ft | 115 kts | 316° |
| 2026-04-24 12:27 | -38.38834 | 145.83329 | 3421 ft | 116 kts | 316° |
| 2026-04-24 12:27 | -38.38260 | 145.82603 | 3422 ft | 117 kts | 316° |
| 2026-04-24 12:28 | -38.37689 | 145.81882 | 3426 ft | 115 kts | 316° |
| 2026-04-24 12:28 | -38.37119 | 145.81167 | 3425 ft | 115 kts | 316° |
| 2026-04-24 12:28 | -38.36546 | 145.80449 | 3425 ft | 116 kts | 316° |
| 2026-04-24 12:28 | -38.36167 | 145.79970 | 3425 ft | 116 kts | 316° |
| 2026-04-24 12:29 | -38.35402 | 145.79005 | 3427 ft | 115 kts | 316° |
| 2026-04-24 12:29 | -38.35018 | 145.78521 | 3427 ft | 115 kts | 316° |
| 2026-04-24 12:29 | -38.34287 | 145.77589 | 3421 ft | 111 kts | 316° |
| 2026-04-24 12:29 | -38.33925 | 145.77124 | 3421 ft | 112 kts | 316° |
| 2026-04-24 12:30 | -38.33376 | 145.76422 | 3423 ft | 111 kts | 316° |
| 2026-04-24 12:30 | -38.32860 | 145.75766 | 3346 ft | 115 kts | 315° |
| 2026-04-24 12:30 | -38.32249 | 145.75017 | 3158 ft | 124 kts | 316° |
| 2026-04-24 12:30 | -38.31615 | 145.74221 | 3053 ft | 139 kts | 319° |
| 2026-04-24 12:31 | -38.30889 | 145.73224 | 3038 ft | 162 kts | 316° |
| 2026-04-24 12:31 | -38.30125 | 145.72157 | 3022 ft | 164 kts | 316° |
| 2026-04-24 12:31 | -38.29360 | 145.71079 | 3012 ft | 164 kts | 316° |
| 2026-04-24 12:31 | -38.28602 | 145.69994 | 3007 ft | 164 kts | 316° |
| 2026-04-24 12:32 | -38.27835 | 145.68900 | 2996 ft | 167 kts | 316° |
| 2026-04-24 12:32 | -38.27054 | 145.67808 | 2992 ft | 168 kts | 316° |
| 2026-04-24 12:32 | -38.26270 | 145.66728 | 3004 ft | 164 kts | 316° |
| 2026-04-24 12:32 | -38.25508 | 145.65654 | 3000 ft | 163 kts | 316° |
| 2026-04-24 12:33 | -38.24749 | 145.64577 | 3000 ft | 164 kts | 316° |
| 2026-04-24 12:33 | -38.23989 | 145.63501 | 3001 ft | 164 kts | 316° |
| 2026-04-24 12:33 | -38.23219 | 145.62436 | 3001 ft | 163 kts | 318° |
| 2026-04-24 12:33 | -38.22434 | 145.61396 | 3000 ft | 164 kts | 319° |
| 2026-04-24 12:34 | -38.21640 | 145.60347 | 3000 ft | 165 kts | 319° |
| 2026-04-24 12:34 | -38.20839 | 145.59298 | 3000 ft | 165 kts | 319° |
| 2026-04-24 12:34 | -38.20038 | 145.58250 | 3000 ft | 165 kts | 319° |
| 2026-04-24 12:34 | -38.19240 | 145.57206 | 3001 ft | 165 kts | 319° |
| 2026-04-24 12:35 | -38.18443 | 145.56160 | 3001 ft | 165 kts | 319° |
| 2026-04-24 12:35 | -38.17647 | 145.55118 | 3001 ft | 164 kts | 319° |
| 2026-04-24 12:35 | -38.16855 | 145.54081 | 2999 ft | 163 kts | 319° |
| 2026-04-24 12:35 | -38.16068 | 145.53044 | 3000 ft | 163 kts | 319° |
| 2026-04-24 12:36 | -38.15280 | 145.52007 | 3001 ft | 163 kts | 319° |
| 2026-04-24 12:36 | -38.14496 | 145.50971 | 3000 ft | 163 kts | 319° |
| 2026-04-24 12:36 | -38.13713 | 145.49935 | 2998 ft | 163 kts | 319° |
| 2026-04-24 12:36 | -38.12927 | 145.48898 | 3000 ft | 163 kts | 319° |
| 2026-04-24 12:37 | -38.12135 | 145.47868 | 3000 ft | 163 kts | 321° |
| 2026-04-24 12:37 | -38.11306 | 145.46875 | 3001 ft | 164 kts | 322° |
| 2026-04-24 12:37 | -38.10470 | 145.45893 | 2999 ft | 164 kts | 323° |
| 2026-04-24 12:37 | -38.09630 | 145.44912 | 3000 ft | 164 kts | 323° |
| 2026-04-24 12:38 | -38.08790 | 145.43926 | 3000 ft | 165 kts | 323° |
| 2026-04-24 12:38 | -38.07948 | 145.42946 | 3000 ft | 164 kts | 323° |
| 2026-04-24 12:38 | -38.07098 | 145.41998 | 3001 ft | 161 kts | 325° |
| 2026-04-24 12:39 | -38.04544 | 145.39209 | 3001 ft | 161 kts | 326° |
| 2026-04-24 12:39 | -38.03682 | 145.38284 | 2991 ft | 164 kts | 326° |
| 2026-04-24 12:39 | -38.02776 | 145.37332 | 3000 ft | 173 kts | 326° |
| 2026-04-24 12:40 | -38.01885 | 145.36381 | 3004 ft | 165 kts | 326° |
| 2026-04-24 12:40 | -38.00998 | 145.35435 | 3004 ft | 167 kts | 326° |
| 2026-04-24 12:40 | -38.00117 | 145.34491 | 2999 ft | 166 kts | 326° |
| 2026-04-24 12:40 | -37.99233 | 145.33545 | 3000 ft | 166 kts | 325° |
| 2026-04-24 12:41 | -37.98350 | 145.32608 | 3000 ft | 165 kts | 326° |
| 2026-04-24 12:41 | -37.97466 | 145.31664 | 3001 ft | 167 kts | 327° |
| 2026-04-24 12:41 | -37.96602 | 145.30716 | 3002 ft | 166 kts | 326° |
| 2026-04-24 12:41 | -37.95729 | 145.29741 | 2997 ft | 165 kts | 326° |
| 2026-04-24 12:42 | -37.94875 | 145.28788 | 2999 ft | 166 kts | 326° |
| 2026-04-24 12:42 | -37.94006 | 145.27825 | 3001 ft | 166 kts | 326° |
| 2026-04-24 12:42 | -37.93132 | 145.26859 | 2966 ft | 167 kts | 326° |
| 2026-04-24 12:42 | -37.92245 | 145.25898 | 2993 ft | 167 kts | 326° |
| 2026-04-24 12:43 | -37.91358 | 145.24928 | 2996 ft | 170 kts | 326° |
| 2026-04-24 12:43 | -37.90469 | 145.23951 | 2998 ft | 169 kts | 326° |
| 2026-04-24 12:43 | -37.89584 | 145.22975 | 2998 ft | 168 kts | 326° |
| 2026-04-24 12:43 | -37.88704 | 145.22012 | 3000 ft | 165 kts | 326° |
| 2026-04-24 12:44 | -37.87825 | 145.21048 | 2999 ft | 167 kts | 326° |
| 2026-04-24 12:44 | -37.86942 | 145.20077 | 3001 ft | 168 kts | 326° |
| 2026-04-24 12:44 | -37.86080 | 145.19124 | 3003 ft | 166 kts | 326° |
| 2026-04-24 12:44 | -37.85202 | 145.18154 | 3002 ft | 165 kts | 326° |
| 2026-04-24 12:45 | -37.84332 | 145.17184 | 2997 ft | 169 kts | 326° |
| 2026-04-24 12:45 | -37.83445 | 145.16199 | 3002 ft | 169 kts | 325° |
| 2026-04-24 12:45 | -37.82569 | 145.15233 | 3001 ft | 166 kts | 326° |
| 2026-04-24 12:45 | -37.81710 | 145.14257 | 2998 ft | 167 kts | 324° |
| 2026-04-24 12:46 | -37.80846 | 145.13254 | 2997 ft | 169 kts | 324° |
| 2026-04-24 12:46 | -37.79981 | 145.12247 | 2999 ft | 168 kts | 324° |
| 2026-04-24 12:46 | -37.79132 | 145.11248 | 2999 ft | 165 kts | 324° |
| 2026-04-24 12:46 | -37.78300 | 145.10267 | 3000 ft | 166 kts | 324° |
| 2026-04-24 12:47 | -37.77430 | 145.09251 | 3000 ft | 170 kts | 324° |
| 2026-04-24 12:47 | -37.76561 | 145.08247 | 3004 ft | 168 kts | 324° |
| 2026-04-24 12:47 | -37.75737 | 145.07232 | 3010 ft | 161 kts | 320° |
| 2026-04-24 12:47 | -37.74969 | 145.06216 | 2823 ft | 167 kts | 311° |
| 2026-04-24 12:48 | -37.74283 | 145.05052 | 2608 ft | 161 kts | 302° |
| 2026-04-24 12:48 | -37.73727 | 145.03846 | 2403 ft | 157 kts | 302° |
| 2026-04-24 12:48 | -37.73159 | 145.02687 | 1959 ft | 163 kts | 301° |
| 2026-04-24 12:48 | -37.72509 | 145.02141 | 1274 ft | 61 kts | 66° |
| 2026-04-24 12:49 | -37.72377 | 145.02284 | 1248 ft | 17 kts | 93° |
| 2026-04-24 12:49 | -37.72324 | 145.02429 | 1219 ft | 14 kts | 50° |
| 2026-04-24 12:49 | -37.72307 | 145.02490 | 1271 ft | 5 kts | 55° |
| 2026-04-24 12:49 | -37.72368 | 145.02508 | 1279 ft | 14 kts | 57° |
| 2026-04-24 12:50 | -37.72498 | 145.02543 | 1237 ft | 25 kts | 66° |
| 2026-04-24 12:50 | -37.72660 | 145.02673 | 1233 ft | 31 kts | 83° |
| 2026-04-24 12:50 | -37.72656 | 145.02986 | 770 ft | 76 kts | 64° |
| 2026-04-24 12:50 | -37.72493 | 145.03430 | 611 ft | 47 kts | 122° |
| 2026-04-24 12:51 | -37.72818 | 145.03433 | 408 ft | 47 kts | 181° |
| 2026-04-24 12:51 | -37.72924 | 145.03472 | 378 ft | 2 kts | 165° |
| 2026-04-24 12:51 | -37.72913 | 145.03470 | 387 ft | 7 kts | 168° |
| 2026-04-24 12:51 | -37.72940 | 145.03520 | 316 ft | 5 kts | 165° |
| 2026-04-24 12:52 | -37.72971 | 145.03526 | 285 ft | 4 kts | 168° |
| 2026-04-24 12:52 | -37.73018 | 145.03540 | 249 ft | 6 kts | 169° |
| 2026-04-24 12:52 | -37.73034 | 145.03544 | 236 ft | 1 kts | 171° |
| 2026-04-24 12:52 | -37.73035 | 145.03543 | 225 ft | 0 kts | 179° |
| 2026-04-24 12:53 | -37.73035 | 145.03542 | 222 ft | 0 kts | 176° |
| 2026-04-24 12:58 | -37.73044 | 145.03539 | 227 ft | 2 kts | 179° |
| 2026-04-24 12:59 | -37.73060 | 145.03543 | 230 ft | 2 kts | 181° |
| 2026-04-24 12:59 | -37.73072 | 145.03546 | 240 ft | 2 kts | 252° |
| 2026-04-24 12:59 | -37.73083 | 145.03529 | 257 ft | 6 kts | 249° |
| 2026-04-24 12:59 | -37.73091 | 145.03478 | 276 ft | 5 kts | 279° |
| 2026-04-24 13:00 | -37.73069 | 145.03447 | 279 ft | 5 kts | 324° |
| 2026-04-24 13:00 | -37.73036 | 145.03434 | 285 ft | 6 kts | 351° |
| 2026-04-24 13:00 | -37.72968 | 145.03433 | 300 ft | 12 kts | 2° |
| 2026-04-24 13:00 | -37.72891 | 145.03443 | 309 ft | 10 kts | 3° |
| 2026-04-24 13:01 | -37.72835 | 145.03449 | 314 ft | 7 kts | 3° |
| 2026-04-24 13:01 | -37.72788 | 145.03453 | 314 ft | 5 kts | 3° |
| 2026-04-24 13:01 | -37.72784 | 145.03452 | 314 ft | 0 kts | 3° |
| 2026-04-24 13:01 | -37.72783 | 145.03450 | 319 ft | 1 kts | 97° |
| 2026-04-24 13:02 | -37.72799 | 145.03465 | 402 ft | 6 kts | 224° |
| 2026-04-24 13:02 | -37.72939 | 145.03295 | 583 ft | 53 kts | 225° |
| 2026-04-24 13:02 | -37.73302 | 145.02932 | 746 ft | 65 kts | 218° |
| 2026-04-24 13:02 | -37.73644 | 145.02601 | 664 ft | 61 kts | 219° |
| 2026-04-24 13:03 | -37.73992 | 145.02279 | 470 ft | 62 kts | 218° |
| 2026-04-24 13:03 | -37.74340 | 145.01957 | 592 ft | 63 kts | 220° |
| 2026-04-24 13:03 | -37.74696 | 145.01625 | 828 ft | 63 kts | 218° |
| 2026-04-24 13:03 | -37.75045 | 145.01285 | 926 ft | 63 kts | 220° |
| 2026-04-24 13:04 | -37.75391 | 145.00942 | 964 ft | 63 kts | 220° |
| 2026-04-24 13:04 | -37.75739 | 145.00595 | 977 ft | 67 kts | 220° |
| 2026-04-24 13:04 | -37.76109 | 145.00215 | 989 ft | 68 kts | 223° |
| 2026-04-24 13:04 | -37.76482 | 144.99836 | 998 ft | 69 kts | 223° |
| 2026-04-24 13:05 | -37.76861 | 144.99452 | 999 ft | 71 kts | 223° |
| 2026-04-24 13:05 | -37.77249 | 144.99068 | 992 ft | 71 kts | 224° |
| 2026-04-24 13:05 | -37.77640 | 144.98684 | 1000 ft | 71 kts | 222° |
| 2026-04-24 13:05 | -37.78015 | 144.98286 | 1001 ft | 69 kts | 223° |
| 2026-04-24 13:06 | -37.78381 | 144.97898 | 999 ft | 70 kts | 223° |
| 2026-04-24 13:06 | -37.78767 | 144.97506 | 997 ft | 74 kts | 224° |
| 2026-04-24 13:06 | -37.79207 | 144.97136 | 875 ft | 84 kts | 204° |
| 2026-04-24 13:06 | -37.79718 | 144.96792 | 661 ft | 79 kts | 236° |
| 2026-04-24 13:07 | -37.79889 | 144.96160 | 500 ft | 71 kts | 262° |
| 2026-04-24 13:07 | -37.79908 | 144.95711 | 282 ft | 16 kts | 245° |
| 2026-04-24 13:07 | -37.79910 | 144.95678 | 275 ft | 2 kts | 245° |
| 2026-04-24 13:07 | -37.79910 | 144.95656 | 266 ft | 3 kts | 244° |
| 2026-04-24 13:08 | -37.79914 | 144.95631 | 253 ft | 3 kts | 244° |
| 2026-04-24 13:08 | -37.79921 | 144.95615 | 221 ft | 1 kts | 244° |
| 2026-04-24 13:08 | -37.79923 | 144.95610 | 216 ft | 0 kts | 244° |
| 2026-04-24 13:09 | -37.79921 | 144.95604 | 195 ft | 0 kts | 243° |
| 2026-04-24 13:13 | -37.79922 | 144.95608 | 207 ft | 1 kts | 243° |
| 2026-04-24 13:13 | -37.79918 | 144.95611 | 295 ft | 2 kts | 244° |
| 2026-04-24 13:14 | -37.79899 | 144.95614 | 593 ft | 9 kts | 325° |
| 2026-04-24 13:14 | -37.79725 | 144.95539 | 753 ft | 45 kts | 333° |
| 2026-04-24 13:14 | -37.79368 | 144.95237 | 897 ft | 71 kts | 328° |
| 2026-04-24 13:14 | -37.78981 | 144.94910 | 949 ft | 67 kts | 330° |
| 2026-04-24 13:15 | -37.78513 | 144.94519 | 971 ft | 89 kts | 330° |
| 2026-04-24 13:15 | -37.78012 | 144.94095 | 987 ft | 85 kts | 330° |
| 2026-04-24 13:15 | -37.77523 | 144.93673 | 993 ft | 85 kts | 330° |
| 2026-04-24 13:15 | -37.77037 | 144.93245 | 997 ft | 85 kts | 330° |
| 2026-04-24 13:16 | -37.76547 | 144.92823 | 995 ft | 87 kts | 331° |
| 2026-04-24 13:16 | -37.76028 | 144.92425 | 1000 ft | 86 kts | 332° |
| 2026-04-24 13:16 | -37.75502 | 144.92027 | 1006 ft | 88 kts | 333° |
| 2026-04-24 13:16 | -37.74984 | 144.91634 | 1002 ft | 85 kts | 332° |
| 2026-04-24 13:17 | -37.74464 | 144.91267 | 1005 ft | 87 kts | 334° |
| 2026-04-24 13:17 | -37.73943 | 144.90905 | 1001 ft | 85 kts | 333° |
| 2026-04-24 13:17 | -37.73382 | 144.90541 | 662 ft | 93 kts | 331° |
| 2026-04-24 13:17 | -37.72931 | 144.90312 | 335 ft | 36 kts | 348° |
| 2026-04-24 13:18 | -37.72868 | 144.90283 | 459 ft | 14 kts | 3° |
| 2026-04-24 13:18 | -37.72624 | 144.90195 | 405 ft | 56 kts | 348° |
| 2026-04-24 13:18 | -37.72235 | 144.89971 | 375 ft | 52 kts | 342° |
| 2026-04-24 13:18 | -37.72053 | 144.89909 | 324 ft | 10 kts | 351° |
| 2026-04-24 13:19 | -37.72017 | 144.89895 | 312 ft | 3 kts | 348° |
| 2026-04-24 13:19 | -37.72003 | 144.89887 | 291 ft | 1 kts | 347° |
| 2026-04-24 13:19 | -37.72002 | 144.89886 | 289 ft | 0 kts | 346° |